createdAt,value
2023-04-09T00:02:10.979Z,100126.47
2023-04-09T00:04:37.647Z,100124.59
2023-04-09T00:07:04.201Z,100128.91
2023-04-09T00:09:30.996Z,100126.13
2023-04-09T00:11:58.285Z,100124.50
2023-04-09T00:14:24.971Z,100127.72
2023-04-09T00:16:51.512Z,100127.44
2023-04-09T00:19:18.025Z,100122.28
2023-04-09T00:21:44.574Z,100115.53
2023-04-09T00:24:11.275Z,100118.47
2023-04-09T00:26:37.860Z,100124.38
2023-04-09T00:29:04.398Z,100114.38
2023-04-09T00:31:30.994Z,100118.97
2023-04-09T00:33:57.550Z,100118.94
2023-04-09T00:36:25.922Z,100120.53
2023-04-09T00:38:54.197Z,100116.19
2023-04-09T00:41:20.922Z,100113.75
2023-04-09T00:43:47.449Z,100116.66
2023-04-09T00:46:14.609Z,100113.16
2023-04-09T00:48:41.839Z,100115.78
2023-04-09T00:51:08.960Z,100117.16
2023-04-09T00:53:35.611Z,100109.31
2023-04-09T00:56:02.985Z,100120.59
2023-04-09T00:58:29.722Z,100116.00
2023-04-09T01:00:56.442Z,100117.59
2023-04-09T01:03:23.529Z,100116.50
2023-04-09T01:06:03.412Z,100118.09
2023-04-09T01:08:32.971Z,100118.06
2023-04-09T01:11:10.043Z,100115.31
2023-04-09T01:13:53.450Z,100118.78
2023-04-09T01:16:24.279Z,100117.97
2023-04-09T01:18:56.551Z,100124.97
2023-04-09T01:21:27.559Z,100119.59
2023-04-09T01:24:06.945Z,100120.94
2023-04-09T01:27:01.576Z,100121.69
2023-04-09T01:29:33.429Z,100114.97
2023-04-09T01:32:03.101Z,100114.72
2023-04-09T01:34:31.061Z,100113.41
2023-04-09T01:37:00.792Z,100116.09
2023-04-09T01:39:27.648Z,100119.31
2023-04-09T01:41:56.240Z,100116.56
2023-04-09T01:44:24.559Z,100120.59
2023-04-09T01:46:51.879Z,100116.81
2023-04-09T01:49:18.831Z,100119.97
2023-04-09T01:51:46.000Z,100120.25
2023-04-09T01:54:12.588Z,100122.69
2023-04-09T01:56:47.858Z,100120.50
2023-04-09T01:59:14.988Z,100116.19
2023-04-09T02:01:47.072Z,100118.31
2023-04-09T02:04:19.256Z,100117.22
2023-04-09T02:06:45.668Z,100112.31
2023-04-09T02:09:13.341Z,100115.28
2023-04-09T02:11:42.243Z,100112.38
2023-04-09T02:14:11.301Z,100120.69
2023-04-09T02:16:39.927Z,100122.59
2023-04-09T02:19:06.519Z,100125.03
2023-04-09T02:21:33.274Z,100113.78
2023-04-09T02:23:59.832Z,100124.00
2023-04-09T02:26:26.461Z,100116.50
2023-04-09T02:28:53.270Z,100109.22
2023-04-09T02:31:20.108Z,100116.81
2023-04-09T02:33:46.683Z,100119.78
2023-04-09T02:36:13.848Z,100113.63
2023-04-09T02:38:42.047Z,100115.81
2023-04-09T02:41:09.307Z,100110.97
2023-04-09T02:43:36.085Z,100110.97
2023-04-09T02:46:02.872Z,100114.22
2023-04-09T02:48:29.506Z,100108.84
2023-04-09T02:50:57.439Z,100110.97
2023-04-09T02:53:24.078Z,100109.34
2023-04-09T02:55:50.610Z,100104.78
2023-04-09T02:58:17.155Z,100109.34
2023-04-09T03:00:43.667Z,100103.97
2023-04-09T03:03:10.702Z,100105.56
2023-04-09T03:05:38.063Z,100107.69
2023-04-09T03:08:04.742Z,100108.78
2023-04-09T03:10:31.424Z,100110.34
2023-04-09T03:12:57.914Z,100109.22
2023-04-09T03:15:24.422Z,100106.50
2023-04-09T03:17:51.220Z,100109.16
2023-04-09T03:20:17.790Z,100107.00
2023-04-09T03:22:44.340Z,100098.38
2023-04-09T03:25:10.975Z,100103.75
2023-04-09T03:27:37.549Z,100099.69
2023-04-09T03:30:04.504Z,100103.44
2023-04-09T03:32:31.254Z,100105.88
2023-04-09T03:34:57.822Z,100102.66
2023-04-09T03:37:24.320Z,100096.13
2023-04-09T03:39:50.931Z,100095.00
2023-04-09T03:42:17.484Z,100101.72
2023-04-09T03:44:43.987Z,100092.78
2023-04-09T03:47:10.657Z,100092.47
2023-04-09T03:49:37.340Z,100094.84
2023-04-09T03:52:03.975Z,100095.63
2023-04-09T03:54:30.991Z,100096.66
2023-04-09T03:56:57.618Z,100096.03
2023-04-09T03:59:24.753Z,100095.44
2023-04-09T04:01:51.783Z,100087.34
2023-04-09T04:04:19.900Z,100101.50
2023-04-09T04:06:47.738Z,100098.78
2023-04-09T04:09:14.448Z,100101.97
2023-04-09T04:11:40.986Z,100098.16
2023-04-09T04:14:07.510Z,100107.78
2023-04-09T04:16:34.093Z,100106.66
2023-04-09T04:19:00.725Z,100103.41
2023-04-09T04:21:27.303Z,100104.72
2023-04-09T04:23:53.843Z,100113.31
2023-04-09T04:26:20.427Z,100105.28
2023-04-09T04:28:47.019Z,100113.59
2023-04-09T04:31:13.651Z,100118.41
2023-04-09T04:33:41.758Z,100109.53
2023-04-09T04:36:10.444Z,100112.47
2023-04-09T04:38:37.296Z,100120.53
2023-04-09T04:41:04.036Z,100120.53
2023-04-09T04:43:31.452Z,100115.72
2023-04-09T04:45:58.165Z,100126.47
2023-04-09T04:48:24.934Z,100119.47
2023-04-09T04:50:57.032Z,100122.94
2023-04-09T04:53:23.683Z,100121.34
2023-04-09T04:55:50.545Z,100114.25
2023-04-09T04:58:17.452Z,100120.47
2023-04-09T05:00:44.235Z,100114.31
2023-04-09T05:03:11.261Z,100116.72
2023-04-09T05:05:37.827Z,100106.59
2023-04-09T05:08:04.615Z,100106.44
2023-04-09T05:10:31.270Z,100110.50
2023-04-09T05:12:57.822Z,100116.13
2023-04-09T05:16:10.409Z,100118.47
2023-04-09T05:18:36.952Z,100127.47
2023-04-09T05:21:03.544Z,100126.28
2023-04-09T05:23:30.087Z,100122.97
2023-04-09T05:25:56.615Z,100114.84
2023-04-09T05:28:23.185Z,100125.28
2023-04-09T05:30:49.792Z,100116.34
2023-04-09T05:33:16.432Z,100125.69
2023-04-09T05:35:43.013Z,100119.75
2023-04-09T05:38:09.564Z,100123.19
2023-04-09T05:40:36.428Z,100122.34
2023-04-09T05:43:02.987Z,100116.91
2023-04-09T05:45:29.553Z,100124.16
2023-04-09T05:47:56.698Z,100122.44
2023-04-09T05:50:23.696Z,100129.16
2023-04-09T05:52:50.459Z,100122.38
2023-04-09T05:55:17.107Z,100125.59
2023-04-09T05:57:45.412Z,100123.41
2023-04-09T06:00:13.465Z,100125.03
2023-04-09T06:02:40.074Z,100127.47
2023-04-09T06:05:06.884Z,100136.06
2023-04-09T06:07:33.596Z,100135.84
2023-04-09T06:10:00.328Z,100134.25
2023-04-09T06:12:26.829Z,100137.50
2023-04-09T06:14:53.353Z,100133.78
2023-04-09T06:17:19.945Z,100134.63
2023-04-09T06:19:46.550Z,100131.44
2023-04-09T06:22:13.124Z,100136.59
2023-04-09T06:24:39.679Z,100140.41
2023-04-09T06:27:06.695Z,100145.00
2023-04-09T06:29:33.301Z,100145.59
2023-04-09T06:31:59.796Z,100152.16
2023-04-09T06:34:26.308Z,100149.72
2023-04-09T06:36:52.945Z,100149.50
2023-04-09T06:39:19.497Z,100153.28
2023-04-09T06:41:46.599Z,100160.59
2023-04-09T06:44:13.718Z,100153.13
2023-04-09T06:46:40.660Z,100154.81
2023-04-09T06:49:07.221Z,100156.78
2023-04-09T06:51:33.833Z,100151.22
2023-04-09T06:54:00.441Z,100153.69
2023-04-09T06:56:27.046Z,100157.78
2023-04-09T06:58:53.674Z,100152.94
2023-04-09T07:01:20.539Z,100150.84
2023-04-09T07:03:47.203Z,100149.78
2023-04-09T07:06:13.824Z,100153.03
2023-04-09T07:08:40.540Z,100154.38
2023-04-09T07:11:07.266Z,100156.25
2023-04-09T07:13:34.038Z,100153.56
2023-04-09T07:16:00.680Z,100155.75
2023-04-09T07:18:27.379Z,100156.03
2023-04-09T07:20:53.927Z,100154.16
2023-04-09T07:23:20.567Z,100155.00
2023-04-09T07:25:47.328Z,100156.06
2023-04-09T07:28:14.029Z,100149.94
2023-04-09T07:30:41.220Z,100161.25
2023-04-09T07:33:07.816Z,100161.00
2023-04-09T07:35:34.837Z,100159.41
2023-04-09T07:38:01.469Z,100152.66
2023-04-09T07:40:28.203Z,100162.38
2023-04-09T07:42:55.720Z,100164.28
2023-04-09T07:45:22.259Z,100167.78
2023-04-09T07:47:48.814Z,100168.31
2023-04-09T07:50:15.949Z,100169.66
2023-04-09T07:52:42.788Z,100165.63
2023-04-09T07:55:09.495Z,100166.16
2023-04-09T07:57:36.916Z,100169.94
2023-04-09T08:00:04.377Z,100169.09
2023-04-09T08:02:31.236Z,100171.81
2023-04-09T08:04:58.303Z,100172.63
2023-04-09T08:07:24.930Z,100175.31
2023-04-09T08:09:51.428Z,100167.19
2023-04-09T08:12:18.027Z,100162.84
2023-04-09T08:14:44.587Z,100155.56
2023-04-09T08:17:11.207Z,100156.88
2023-04-09T08:19:39.773Z,100153.09
2023-04-09T08:22:07.733Z,100145.47
2023-04-09T08:24:34.825Z,100151.16
2023-04-09T08:27:01.998Z,100154.09
2023-04-09T08:29:28.559Z,100157.91
2023-04-09T08:31:55.192Z,100157.84
2023-04-09T08:34:22.200Z,100155.91
2023-04-09T08:36:49.942Z,100153.94
2023-04-09T08:39:20.850Z,100153.88
2023-04-09T08:41:48.397Z,100152.75
2023-04-09T08:44:14.993Z,100150.53
2023-04-09T08:46:42.065Z,100150.47
2023-04-09T08:49:10.883Z,100152.00
2023-04-09T08:51:37.466Z,100144.66
2023-04-09T08:54:05.056Z,100150.31
2023-04-09T08:56:32.582Z,100144.28
2023-04-09T08:58:59.344Z,100145.53
2023-04-09T09:01:28.040Z,100144.59
2023-04-09T09:03:59.090Z,100148.06
2023-04-09T09:06:29.340Z,100153.22
2023-04-09T09:09:05.494Z,100145.34
2023-04-09T09:11:33.484Z,100144.25
2023-04-09T09:14:10.832Z,100147.97
2023-04-09T09:16:43.199Z,100141.09
2023-04-09T09:19:31.126Z,100134.47
2023-04-09T09:22:01.826Z,100137.53
2023-04-09T09:24:28.630Z,100137.13
2023-04-09T09:26:55.836Z,100137.22
2023-04-09T09:29:22.572Z,100129.63
2023-04-09T09:31:51.977Z,100142.59
2023-04-09T09:34:21.115Z,100133.41
2023-04-09T09:36:48.021Z,100145.31
2023-04-09T09:39:17.424Z,100138.19
2023-04-09T09:41:45.282Z,100132.06
2023-04-09T09:44:13.421Z,100132.66
2023-04-09T09:46:42.357Z,100127.56
2023-04-09T09:49:09.605Z,100124.38
2023-04-09T09:51:39.234Z,100123.63
2023-04-09T09:54:07.825Z,100110.41
2023-04-09T09:56:39.687Z,100104.59
2023-04-09T09:59:23.636Z,100104.13
2023-04-09T10:01:59.961Z,100105.44
2023-04-09T10:04:29.793Z,100099.84
2023-04-09T10:06:57.627Z,100098.72
2023-04-09T10:09:28.132Z,100097.63
2023-04-09T10:11:56.028Z,100084.56
2023-04-09T10:14:23.193Z,100090.00
2023-04-09T10:16:49.857Z,100097.81
2023-04-09T10:19:17.130Z,100097.44
2023-04-09T10:22:21.459Z,100098.66
2023-04-09T10:24:48.385Z,100086.38
2023-04-09T10:27:17.365Z,100088.59
2023-04-09T10:29:49.059Z,100079.22
2023-04-09T10:32:28.479Z,100086.25
2023-04-09T10:35:01.686Z,100077.00
2023-04-09T10:37:28.762Z,100076.50
2023-04-09T10:39:56.582Z,100079.06
2023-04-09T10:42:42.079Z,100072.31
2023-04-09T10:45:16.821Z,100063.00
2023-04-09T10:47:44.318Z,100060.09
2023-04-09T10:50:24.103Z,100067.31
2023-04-09T10:52:56.627Z,100060.00
2023-04-09T10:55:39.125Z,100055.84
2023-04-09T10:58:12.350Z,100056.97
2023-04-09T11:00:41.826Z,100057.75
2023-04-09T11:03:22.258Z,100050.25
2023-04-09T11:05:52.639Z,100061.41
2023-04-09T11:08:19.538Z,100054.34
2023-04-09T11:10:49.775Z,100049.88
2023-04-09T11:13:20.074Z,100049.78
2023-04-09T11:15:46.742Z,100045.75
2023-04-09T11:18:24.518Z,100042.03
2023-04-09T11:20:55.367Z,100043.22
2023-04-09T11:23:22.127Z,100032.03
2023-04-09T11:25:51.148Z,100032.84
2023-04-09T11:28:18.750Z,100038.44
2023-04-09T11:30:46.945Z,100037.81
2023-04-09T11:33:14.178Z,100039.34
2023-04-09T11:35:40.982Z,100029.56
2023-04-09T11:38:09.187Z,100039.84
2023-04-09T11:40:36.405Z,100031.66
2023-04-09T11:43:03.260Z,100037.41
2023-04-09T11:45:31.720Z,100033.22
2023-04-09T11:47:58.919Z,100037.72
2023-04-09T11:50:25.844Z,100035.66
2023-04-09T11:52:52.652Z,100038.22
2023-04-09T11:55:26.933Z,100040.84
2023-04-09T11:57:57.493Z,100045.81
2023-04-09T12:00:25.112Z,100042.31
2023-04-09T12:02:59.722Z,100047.78
2023-04-09T12:05:30.636Z,100044.38
2023-04-09T12:08:07.544Z,100040.19
2023-04-09T12:10:38.119Z,100029.94
2023-04-09T12:13:10.493Z,100034.91
2023-04-09T12:15:41.003Z,100027.06
2023-04-09T12:18:12.409Z,100030.34
2023-04-09T12:20:40.017Z,100020.22
2023-04-09T12:23:08.291Z,100029.47
2023-04-09T12:25:39.251Z,100024.13
2023-04-09T12:28:07.498Z,100028.00
2023-04-09T12:30:35.424Z,100019.75
2023-04-09T12:33:03.488Z,100018.34
2023-04-09T12:35:30.426Z,100019.59
2023-04-09T12:37:57.235Z,100024.59
2023-04-09T12:40:23.757Z,100020.44
2023-04-09T12:42:50.350Z,100010.75
2023-04-09T12:45:18.950Z,100011.72
2023-04-09T12:47:46.019Z,100015.56
2023-04-09T12:50:15.023Z,100002.44
2023-04-09T12:52:42.195Z,100005.47
2023-04-09T12:55:09.288Z,100006.44
2023-04-09T12:57:37.375Z,100008.06
2023-04-09T13:00:05.931Z,100011.75
2023-04-09T13:02:32.670Z,100013.69
2023-04-09T13:04:59.405Z,100011.63
2023-04-09T13:07:29.192Z,100010.97
2023-04-09T13:09:56.807Z,100005.97
2023-04-09T13:12:24.140Z,100007.28
2023-04-09T13:14:53.673Z,100004.88
2023-04-09T13:17:20.630Z,99998.41
2023-04-09T13:19:47.384Z,99993.25
2023-04-09T13:22:14.035Z,100000.94
2023-04-09T13:24:40.798Z,99991.53
2023-04-09T13:27:09.672Z,99994.97
2023-04-09T13:29:36.658Z,99991.03
2023-04-09T13:32:07.174Z,99982.44
2023-04-09T13:34:35.124Z,99982.06
2023-04-09T13:37:04.993Z,99978.06
2023-04-09T13:39:31.530Z,99975.94
2023-04-09T13:41:58.249Z,99961.75
2023-04-09T13:44:25.799Z,99959.00
2023-04-09T13:46:52.800Z,99951.97
2023-04-09T13:49:19.458Z,99939.22
2023-04-09T13:51:46.692Z,99933.75
2023-04-09T13:54:13.457Z,99933.09
2023-04-09T13:56:40.492Z,99929.38
2023-04-09T13:59:07.199Z,99930.06
2023-04-09T14:01:34.463Z,99926.59
2023-04-09T14:04:01.387Z,99917.66
2023-04-09T14:06:28.105Z,99924.16
2023-04-09T14:08:55.907Z,99916.59
2023-04-09T14:11:22.548Z,99906.41
2023-04-09T14:13:49.146Z,99910.44
2023-04-09T14:16:15.830Z,99909.13
2023-04-09T14:18:42.441Z,99900.88
2023-04-09T14:21:10.325Z,99896.88
2023-04-09T14:23:39.701Z,99896.59
2023-04-09T14:26:07.028Z,99885.63
2023-04-09T14:28:33.763Z,99874.97
2023-04-09T14:31:00.622Z,99879.66
2023-04-09T14:33:27.636Z,99884.91
2023-04-09T14:35:54.404Z,99879.81
2023-04-09T14:38:20.951Z,99879.69
2023-04-09T14:40:47.539Z,99885.28
2023-04-09T14:43:14.135Z,99884.19
2023-04-09T14:45:40.671Z,99883.22
2023-04-09T14:48:07.283Z,99874.19
2023-04-09T14:50:34.295Z,99871.97
2023-04-09T14:53:01.476Z,99876.69
2023-04-09T14:55:28.340Z,99871.88
2023-04-09T14:57:55.000Z,99874.59
2023-04-09T15:00:22.701Z,99878.78
2023-04-09T15:02:49.502Z,99883.50
2023-04-09T15:05:16.231Z,99878.81
2023-04-09T15:07:43.816Z,99871.94
2023-04-09T15:10:11.025Z,99878.47
2023-04-09T15:12:37.611Z,99880.97
2023-04-09T15:15:08.850Z,99870.09
2023-04-09T15:17:35.799Z,99867.59
2023-04-09T15:20:02.422Z,99868.59
2023-04-09T15:22:29.011Z,99864.56
2023-04-09T15:24:55.724Z,99863.84
2023-04-09T15:27:22.316Z,99862.22
2023-04-09T15:29:48.951Z,99861.69
2023-04-09T15:32:15.529Z,99858.25
2023-04-09T15:34:42.128Z,99855.56
2023-04-09T15:37:08.664Z,99846.16
2023-04-09T15:39:35.409Z,99846.84
2023-04-09T15:42:02.074Z,99851.97
2023-04-09T15:44:28.885Z,99859.06
2023-04-09T15:46:56.199Z,99847.91
2023-04-09T15:49:23.333Z,99850.72
2023-04-09T15:51:49.908Z,99857.00
2023-04-09T15:54:16.654Z,99852.19
2023-04-09T15:56:43.253Z,99853.84
2023-04-09T15:59:10.074Z,99850.31
2023-04-09T16:01:36.979Z,99845.97
2023-04-09T16:04:04.783Z,99844.78
2023-04-09T16:06:31.937Z,99843.59
2023-04-09T16:08:58.673Z,99841.22
2023-04-09T16:11:26.044Z,99843.47
2023-04-09T16:13:52.779Z,99845.72
2023-04-09T16:16:19.669Z,99840.09
2023-04-09T16:18:46.311Z,99845.59
2023-04-09T16:21:13.080Z,99846.03
2023-04-09T16:23:39.940Z,99846.91
2023-04-09T16:26:07.016Z,99839.72
2023-04-09T16:28:33.754Z,99839.78
2023-04-09T16:31:00.455Z,99839.69
2023-04-09T16:33:27.089Z,99837.13
2023-04-09T16:35:53.666Z,99836.09
2023-04-09T16:38:20.308Z,99835.66
2023-04-09T16:40:46.967Z,99844.34
2023-04-09T16:43:13.500Z,99840.91
2023-04-09T16:48:24.670Z,99840.72
2023-04-09T16:50:51.217Z,99837.44
2023-04-09T16:53:17.968Z,99838.84
2023-04-09T16:55:44.913Z,99837.88
2023-04-09T16:58:11.521Z,99847.53
2023-04-09T17:00:40.021Z,99857.19
2023-04-09T17:03:06.897Z,99851.75
2023-04-09T17:05:33.835Z,99853.25
2023-04-09T17:08:01.167Z,99850.50
2023-04-09T17:10:27.986Z,99853.28
2023-04-09T17:12:54.811Z,99853.31
2023-04-09T17:15:22.682Z,99860.69
2023-04-09T17:17:51.341Z,99856.09
2023-04-09T17:20:18.085Z,99858.13
2023-04-09T17:22:44.677Z,99857.50
2023-04-09T17:25:11.498Z,99861.25
2023-04-09T17:27:38.028Z,99856.78
2023-04-09T17:30:05.163Z,99858.28
2023-04-09T17:32:31.914Z,99860.19
2023-04-09T17:34:59.659Z,99868.25
2023-04-09T17:37:28.689Z,99869.22
2023-04-09T17:39:55.508Z,99869.53
2023-04-09T17:42:23.341Z,99875.28
2023-04-09T17:44:49.873Z,99873.66
2023-04-09T17:47:17.041Z,99875.56
2023-04-09T17:49:43.793Z,99879.06
2023-04-09T17:52:10.354Z,99886.06
2023-04-09T17:54:38.103Z,99885.34
2023-04-09T17:57:07.235Z,99889.47
2023-04-09T17:59:37.020Z,99885.53
2023-04-09T18:02:03.823Z,99894.13
2023-04-09T18:04:31.642Z,99897.03
2023-04-09T18:06:58.439Z,99896.31
2023-04-09T18:09:25.022Z,99893.13
2023-04-09T18:11:56.259Z,99892.41
2023-04-09T18:14:23.020Z,99902.28
2023-04-09T18:16:49.795Z,99893.66
2023-04-09T18:19:16.593Z,99895.91
2023-04-09T18:21:43.152Z,99898.78
2023-04-09T18:24:09.702Z,99908.31
2023-04-09T18:26:36.704Z,99905.91
2023-04-09T18:29:03.372Z,99915.13
2023-04-09T18:31:29.975Z,99915.38
2023-04-09T18:33:56.573Z,99912.63
2023-04-09T18:36:23.436Z,99916.94
2023-04-09T18:38:49.997Z,99917.91
2023-04-09T18:41:26.607Z,99918.88
2023-04-09T18:43:53.938Z,99930.13
2023-04-09T18:46:20.524Z,99922.13
2023-04-09T18:48:47.148Z,99926.03
2023-04-09T18:51:14.552Z,99925.59
2023-04-09T18:53:42.053Z,99935.19
2023-04-09T18:56:09.129Z,99937.22
2023-04-09T18:58:36.351Z,99937.06
2023-04-09T19:01:11.209Z,99939.13
2023-04-09T19:03:38.629Z,99938.13
2023-04-09T19:06:19.685Z,99939.84
2023-04-09T19:08:47.915Z,99945.34
2023-04-09T19:11:15.218Z,99953.03
2023-04-09T19:13:41.848Z,99960.16
2023-04-09T19:16:12.361Z,99951.84
2023-04-09T19:18:38.951Z,99953.56
2023-04-09T19:21:07.487Z,99941.47
2023-04-09T19:23:34.597Z,99950.22
2023-04-09T19:26:02.328Z,99949.75
2023-04-09T19:28:29.108Z,99954.69
2023-04-09T19:30:55.738Z,99954.22
2023-04-09T19:33:24.312Z,99956.16
2023-04-09T19:35:51.674Z,99962.19
2023-04-09T19:38:19.034Z,99959.81
2023-04-09T19:40:46.437Z,99958.25
2023-04-09T19:43:13.841Z,99952.84
2023-04-09T19:45:42.452Z,99950.50
2023-04-09T19:48:09.187Z,99951.06
2023-04-09T19:50:46.547Z,99955.72
2023-04-09T19:53:13.170Z,99957.91
2023-04-09T19:55:39.743Z,99962.81
2023-04-09T19:58:06.928Z,99956.63
2023-04-09T20:00:34.105Z,99963.97
2023-04-09T20:03:01.186Z,99961.84
2023-04-09T20:05:27.845Z,99965.38
2023-04-09T20:07:54.808Z,99969.47
2023-04-09T20:10:21.566Z,99969.50
2023-04-09T20:12:49.672Z,99963.03
2023-04-09T20:15:19.938Z,99957.94
2023-04-09T20:17:48.409Z,99959.88
2023-04-09T20:20:17.917Z,99957.69
2023-04-09T20:22:47.507Z,99961.50
2023-04-09T20:25:14.201Z,99959.94
2023-04-09T20:27:41.090Z,99968.06
2023-04-09T20:30:08.302Z,99965.63
2023-04-09T20:32:36.928Z,99971.59
2023-04-09T20:35:04.705Z,99970.25
2023-04-09T20:37:31.269Z,99955.19
2023-04-09T20:39:59.452Z,99954.91
2023-04-09T20:42:26.258Z,99950.84
2023-04-09T20:44:53.222Z,99958.41
2023-04-09T20:47:21.107Z,99956.28
2023-04-09T20:49:49.028Z,99956.28
2023-04-09T20:52:15.563Z,99955.22
2023-04-09T20:54:43.061Z,99962.25
2023-04-09T20:57:11.061Z,99960.34
2023-04-09T20:59:39.429Z,99957.38
2023-04-09T21:02:06.122Z,99962.25
2023-04-09T21:04:32.931Z,99956.88
2023-04-09T21:06:59.478Z,99951.19
2023-04-09T21:09:26.195Z,99957.09
2023-04-09T21:11:52.739Z,99952.25
2023-04-09T21:14:19.264Z,99954.69
2023-04-09T21:16:45.991Z,99948.50
2023-04-09T21:19:12.537Z,99947.16
2023-04-09T21:21:39.114Z,99949.84
2023-04-09T21:24:05.704Z,99939.84
2023-04-09T21:26:48.691Z,99943.13
2023-04-09T21:29:17.250Z,99936.91
2023-04-09T21:31:43.851Z,99943.63
2023-04-09T21:34:10.411Z,99947.16
2023-04-09T21:36:39.260Z,99932.63
2023-04-09T21:39:05.963Z,99932.03
2023-04-09T21:41:32.539Z,99933.44
2023-04-09T21:44:03.465Z,99942.03
2023-04-09T21:46:30.072Z,99944.47
2023-04-09T21:48:56.842Z,99941.50
2023-04-09T21:51:23.421Z,99938.50
2023-04-09T21:53:50.183Z,99938.53
2023-04-09T21:56:16.722Z,99938.25
2023-04-09T21:58:43.340Z,99928.81
2023-04-09T22:01:22.437Z,99930.16
2023-04-09T22:03:54.935Z,99935.28
2023-04-09T22:06:21.478Z,99931.25
2023-04-09T22:08:55.345Z,99922.34
2023-04-09T22:11:28.386Z,99923.41
2023-04-09T22:13:56.785Z,99920.72
2023-04-09T22:16:24.078Z,99917.47
2023-04-09T22:18:51.528Z,99927.19
2023-04-09T22:21:18.432Z,99929.34
2023-04-09T22:23:45.411Z,99924.72
2023-04-09T22:26:11.988Z,99932.53
2023-04-09T22:28:38.653Z,99932.28
2023-04-09T22:31:05.955Z,99937.63
2023-04-09T22:33:32.860Z,99935.75
2023-04-09T22:35:59.697Z,99946.22
2023-04-09T22:38:26.544Z,99954.28
2023-04-09T22:40:53.224Z,99951.81
2023-04-09T22:43:19.830Z,99953.44
2023-04-09T22:45:54.302Z,99965.25
2023-04-09T22:48:22.043Z,99962.81
2023-04-09T22:50:49.479Z,99970.09
2023-04-09T22:53:19.405Z,99963.63
2023-04-09T22:55:54.509Z,99962.50
2023-04-09T22:58:21.277Z,99948.53
2023-04-09T23:00:48.238Z,99946.91
2023-04-09T23:03:15.103Z,99947.72
2023-04-09T23:05:42.238Z,99937.75
2023-04-09T23:08:09.214Z,99937.75
2023-04-09T23:10:36.161Z,99929.69
2023-04-09T23:13:02.855Z,99932.66
2023-04-09T23:15:29.540Z,99932.91
2023-04-09T23:17:56.292Z,99940.66
2023-04-09T23:20:23.358Z,99947.13
2023-04-09T23:22:50.424Z,99943.63
2023-04-09T23:25:17.378Z,99951.44
2023-04-09T23:27:44.387Z,99947.13
2023-04-09T23:30:11.670Z,99940.41
2023-04-09T23:32:38.294Z,99942.00
2023-04-09T23:35:05.610Z,99940.63
2023-04-09T23:37:32.177Z,99933.09
2023-04-09T23:39:58.731Z,99937.09
2023-04-09T23:42:26.870Z,99936.56
2023-04-09T23:44:53.371Z,99934.41
2023-04-09T23:47:19.875Z,99932.78
2023-04-09T23:49:46.808Z,99932.78
2023-04-09T23:52:13.362Z,99930.34
2023-04-09T23:54:48.984Z,99924.69
2023-04-09T23:57:15.531Z,99929.53
2023-04-09T23:59:42.047Z,99928.16
